Time;durP1;ratioP1;P1;durP2;ratioP2;P2;SDS_P1;SDS_P2;PMS_P1;PMS_P2;Temp;Humidity;BMP_temperature;BMP_pressure;BME280_temperature;BME280_humidity;BME280_pressure;Samples;Min_cycle;Max_cycle;Signal;HPM_P1;HPM_P2
2022/09/01 00:01:33;;;;;;;2.75;1.48;;;19.10;99.90;;;;;;5038626;28;20117;-60
2022/09/01 00:04:02;;;;;;;2.30;1.50;;;18.90;99.90;;;;;;5044266;28;20425;-57
2022/09/01 00:06:29;;;;;;;1.67;1.13;;;18.90;99.90;;;;;;5041741;28;20033;-59
2022/09/01 00:08:58;;;;;;;1.98;1.30;;;18.80;99.90;;;;;;5041610;28;20041;-56
2022/09/01 00:11:25;;;;;;;3.60;1.30;;;19.00;99.90;;;;;;5045942;28;20045;-59
2022/09/01 00:13:52;;;;;;;3.08;1.40;;;19.00;99.90;;;;;;5048274;28;20033;-58
2022/09/01 00:16:19;;;;;;;3.83;1.50;;;18.90;99.90;;;;;;5042863;28;20037;-59
2022/09/01 00:18:49;;;;;;;2.83;1.50;;;18.80;99.90;;;;;;5045051;28;20491;-59
2022/09/01 00:21:18;;;;;;;3.83;1.45;;;18.80;99.90;;;;;;5044450;28;20471;-60
2022/09/01 00:23:44;;;;;;;6.13;1.48;;;18.90;99.90;;;;;;5043998;28;20083;-59
2022/09/01 00:26:10;;;;;;;6.00;1.83;;;18.90;99.90;;;;;;5044980;28;20041;-60
2022/09/01 00:28:37;;;;;;;3.10;1.60;;;18.80;99.90;;;;;;5042327;28;20028;-58
2022/09/01 00:31:05;;;;;;;2.03;1.30;;;18.90;99.90;;;;;;5046932;28;20075;-57
2022/09/01 00:33:31;;;;;;;2.33;1.52;;;18.60;99.90;;;;;;5041186;28;20107;-59
2022/09/01 00:35:57;;;;;;;3.70;1.30;;;18.50;99.90;;;;;;5047220;28;20491;-59
2022/09/01 00:38:23;;;;;;;2.85;1.40;;;18.50;99.90;;;;;;5044715;28;20106;-59
2022/09/01 00:40:48;;;;;;;2.55;1.20;;;18.40;99.90;;;;;;5047515;28;20045;-60
2022/09/01 00:43:19;;;;;;;2.92;1.23;;;18.50;99.90;;;;;;5045588;28;20508;-55
2022/09/01 00:45:45;;;;;;;4.18;1.50;;;18.50;99.90;;;;;;5035521;28;20037;-60
2022/09/01 00:48:10;;;;;;;2.47;1.40;;;18.70;99.90;;;;;;5042393;28;20040;-57
2022/09/01 00:50:36;;;;;;;3.60;1.60;;;18.70;99.90;;;;;;5042689;28;20037;-56
2022/09/01 00:53:05;;;;;;;3.42;1.42;;;18.70;99.90;;;;;;5041553;28;20036;-58
2022/09/01 00:55:34;;;;;;;3.80;1.23;;;18.50;99.90;;;;;;5049945;28;20037;-57
2022/09/01 00:58:02;;;;;;;3.13;1.30;;;18.40;99.90;;;;;;5040191;28;20040;-59
2022/09/01 01:00:31;;;;;;;2.65;1.30;;;18.40;99.90;;;;;;5043783;28;20312;-57
2022/09/01 01:02:57;;;;;;;3.58;1.50;;;18.20;99.90;;;;;;5039610;28;20049;-57
2022/09/01 01:05:29;;;;;;;3.15;1.30;;;18.20;99.90;;;;;;5047934;28;20052;-60
2022/09/01 01:07:56;;;;;;;2.10;1.45;;;18.20;99.90;;;;;;5036139;28;20430;-57
2022/09/01 01:10:25;;;;;;;4.35;1.67;;;18.10;99.90;;;;;;5039875;28;20559;-59
2022/09/01 01:12:52;;;;;;;6.90;1.58;;;18.10;99.90;;;;;;5050574;28;20158;-59
2022/09/01 01:15:19;;;;;;;5.18;1.35;;;18.10;99.90;;;;;;5044101;28;20033;-59
2022/09/01 01:17:45;;;;;;;3.47;1.30;;;18.20;99.90;;;;;;5038342;28;20030;-59
2022/09/01 01:23:23;;;;;;;5.88;1.52;;;18.20;99.90;;;;;;5047622;28;20051;-57
2022/09/01 01:25:53;;;;;;;5.13;1.52;;;18.10;99.90;;;;;;5044515;28;20699;-60
2022/09/01 01:28:24;;;;;;;3.75;1.60;;;18.00;99.90;;;;;;5043538;28;20047;-59
2022/09/01 01:31:10;;;;;;;4.03;1.70;;;17.90;99.90;;;;;;5040831;28;20036;-59
2022/09/01 01:33:43;;;;;;;4.28;1.45;;;17.80;99.90;;;;;;5057102;28;20047;-58
2022/09/01 01:36:25;;;;;;;4.70;1.85;;;17.80;99.90;;;;;;5053023;28;20116;-59
2022/09/01 01:38:52;;;;;;;3.45;1.70;;;17.90;99.90;;;;;;5047410;28;20040;-59
2022/09/01 01:41:19;;;;;;;4.55;1.63;;;18.00;99.90;;;;;;5042076;28;20045;-58
2022/09/01 01:43:47;;;;;;;4.65;1.67;;;18.00;99.90;;;;;;5043570;28;20148;-59
2022/09/01 01:46:13;;;;;;;5.53;1.60;;;18.20;99.90;;;;;;5043630;28;20094;-59
2022/09/01 01:48:41;;;;;;;2.92;1.40;;;18.30;99.90;;;;;;5039007;28;20128;-59
2022/09/01 01:51:09;;;;;;;3.60;1.50;;;18.50;99.90;;;;;;5040484;28;20059;-58
2022/09/01 01:53:36;;;;;;;2.85;1.73;;;18.40;99.90;;;;;;5047795;28;20488;-59
2022/09/01 01:56:02;;;;;;;5.30;1.42;;;18.30;99.90;;;;;;5045481;28;20264;-56
2022/09/01 01:58:29;;;;;;;3.97;1.50;;;18.40;99.90;;;;;;5038216;28;20033;-59
2022/09/01 02:00:55;;;;;;;3.22;1.33;;;18.40;99.90;;;;;;5038670;28;20037;-59
2022/09/01 02:03:29;;;;;;;4.38;1.70;;;18.30;99.90;;;;;;5041011;28;20484;-60
2022/09/01 02:05:55;;;;;;;4.10;1.40;;;18.20;99.90;;;;;;5038425;28;21490;-60
2022/09/01 02:08:24;;;;;;;2.30;1.30;;;18.30;99.90;;;;;;5037074;28;20664;-57
2022/09/01 02:10:53;;;;;;;3.35;1.50;;;18.20;99.90;;;;;;5042190;28;20509;-56
2022/09/01 02:13:24;;;;;;;3.03;1.58;;;17.80;99.90;;;;;;5045661;28;20557;-57
2022/09/01 02:15:52;;;;;;;3.35;1.50;;;17.60;99.90;;;;;;5037337;28;20462;-58
2022/09/01 02:18:40;;;;;;;3.90;1.70;;;17.50;99.90;;;;;;5044511;28;20033;-59
2022/09/01 02:21:08;;;;;;;3.33;1.45;;;17.40;99.90;;;;;;5036731;28;20033;-59
2022/09/01 02:23:35;;;;;;;3.05;1.50;;;17.30;99.90;;;;;;5043008;28;20033;-58
2022/09/01 02:26:01;;;;;;;5.05;1.42;;;17.40;99.90;;;;;;5039987;28;20063;-58
2022/09/01 02:28:30;;;;;;;3.95;2.00;;;17.40;99.90;;;;;;5062270;28;20067;-57
2022/09/01 02:30:58;;;;;;;5.38;1.70;;;17.60;99.90;;;;;;5063273;28;20067;-59
2022/09/01 02:33:26;;;;;;;4.05;1.50;;;17.60;99.90;;;;;;5066296;28;20051;-57
2022/09/01 02:35:54;;;;;;;8.35;1.50;;;17.70;99.90;;;;;;5065481;28;20187;-58
2022/09/01 02:38:27;;;;;;;4.63;1.58;;;17.70;99.90;;;;;;5059165;28;20061;-60
2022/09/01 02:40:53;;;;;;;3.65;1.70;;;17.70;99.90;;;;;;5060039;28;20028;-58
2022/09/01 02:43:20;;;;;;;6.30;1.80;;;17.80;99.90;;;;;;5062009;28;20437;-58
2022/09/01 02:45:56;;;;;;;3.80;1.50;;;18.00;99.90;;;;;;5057055;28;20029;-59
2022/09/01 02:48:34;;;;;;;4.90;1.52;;;17.90;99.90;;;;;;5060479;28;20125;-59
2022/09/01 02:51:01;;;;;;;4.43;1.50;;;17.80;99.90;;;;;;5062368;28;20024;-57
2022/09/01 02:53:28;;;;;;;4.15;1.90;;;17.60;99.90;;;;;;5041967;28;20043;-59
2022/09/01 02:55:57;;;;;;;4.72;1.67;;;17.50;99.90;;;;;;5042310;28;20040;-58
2022/09/01 02:58:23;;;;;;;5.18;1.77;;;17.30;99.90;;;;;;5039669;28;20496;-57
2022/09/01 03:00:54;;;;;;;3.28;1.35;;;17.40;99.90;;;;;;5040913;28;20503;-59
2022/09/01 03:03:20;;;;;;;4.72;1.60;;;17.40;99.90;;;;;;5039425;28;20040;-58
2022/09/01 03:05:55;;;;;;;6.00;1.67;;;17.60;99.90;;;;;;5038313;28;20037;-59
2022/09/01 03:08:23;;;;;;;3.70;1.75;;;17.50;99.90;;;;;;5037340;28;20029;-59
2022/09/01 03:10:50;;;;;;;3.72;1.55;;;17.60;99.90;;;;;;5045152;28;20399;-57
2022/09/01 03:13:20;;;;;;;2.25;1.30;;;17.40;99.90;;;;;;5044049;28;20040;-57
2022/09/01 03:15:46;;;;;;;3.45;1.55;;;17.40;99.90;;;;;;5044566;28;20488;-59
2022/09/01 03:18:13;;;;;;;4.05;1.70;;;17.40;99.90;;;;;;5043763;28;20041;-59
2022/09/01 03:20:43;;;;;;;4.47;1.80;;;17.30;99.90;;;;;;5042757;28;20029;-58
2022/09/01 03:23:13;;;;;;;3.65;1.63;;;16.90;99.90;;;;;;5043588;28;20064;-57
2022/09/01 03:25:40;;;;;;;3.33;1.88;;;16.90;99.90;;;;;;5039279;28;20538;-57
2022/09/01 03:28:05;;;;;;;4.50;1.83;;;16.90;99.90;;;;;;5042304;28;20127;-58
2022/09/01 03:30:34;;;;;;;4.60;1.63;;;16.80;99.90;;;;;;5034298;28;20117;-58
2022/09/01 03:33:01;;;;;;;3.45;1.65;;;16.90;99.90;;;;;;5036159;28;20063;-58
2022/09/01 03:35:30;;;;;;;4.90;1.60;;;16.90;99.90;;;;;;5042070;28;20044;-59
2022/09/01 03:37:57;;;;;;;3.08;1.80;;;16.80;99.90;;;;;;5045515;28;20682;-56
2022/09/01 03:40:26;;;;;;;4.25;2.10;;;16.60;99.90;;;;;;5043589;28;20480;-59
2022/09/01 03:42:54;;;;;;;5.68;1.90;;;16.60;99.90;;;;;;5046136;28;20103;-57
2022/09/01 03:45:24;;;;;;;4.82;1.85;;;16.50;99.90;;;;;;5042670;28;20041;-58
2022/09/01 03:47:53;;;;;;;5.88;2.00;;;16.50;99.90;;;;;;5042415;28;20040;-58
2022/09/01 03:50:22;;;;;;;7.70;2.10;;;16.50;99.90;;;;;;5041989;28;20029;-59
2022/09/01 03:52:54;;;;;;;5.07;2.30;;;16.40;99.90;;;;;;5044602;28;20449;-58
2022/09/01 03:55:25;;;;;;;5.45;2.10;;;16.60;99.90;;;;;;5045112;28;20668;-56
2022/09/01 03:57:56;;;;;;;4.15;2.30;;;16.60;99.90;;;;;;5040683;28;20563;-59
2022/09/01 04:00:24;;;;;;;6.00;2.20;;;16.80;99.90;;;;;;5040118;28;20179;-58
2022/09/01 04:02:56;;;;;;;6.57;2.10;;;16.60;99.90;;;;;;5043881;28;20028;-59
2022/09/01 04:05:23;;;;;;;5.97;2.30;;;16.50;99.90;;;;;;5040785;28;20048;-57
2022/09/01 04:07:50;;;;;;;6.05;2.20;;;16.50;99.90;;;;;;5041643;28;20378;-58
2022/09/01 04:10:17;;;;;;;7.25;2.00;;;16.50;99.90;;;;;;5042817;28;20037;-59
2022/09/01 04:12:43;;;;;;;4.63;2.20;;;16.60;99.90;;;;;;5045789;28;20513;-59
2022/09/01 04:15:10;;;;;;;7.95;2.50;;;16.60;99.90;;;;;;5044133;28;20522;-59
2022/09/01 04:20:20;;;;;;;4.60;2.35;;;16.40;99.90;;;;;;5037526;28;20044;-58
2022/09/01 04:22:47;;;;;;;5.70;2.40;;;16.50;99.90;;;;;;5043416;28;20037;-58
2022/09/01 04:25:14;;;;;;;6.47;2.22;;;16.40;99.90;;;;;;5039443;28;20565;-59
2022/09/01 04:27:40;;;;;;;6.30;2.40;;;16.60;99.90;;;;;;5041283;28;20094;-58
2022/09/01 04:30:10;;;;;;;8.93;2.60;;;16.50;99.90;;;;;;5047240;28;20065;-59
2022/09/01 04:32:37;;;;;;;5.45;2.40;;;16.50;99.90;;;;;;5038844;28;20488;-59
2022/09/01 04:35:04;;;;;;;8.60;2.58;;;16.30;99.90;;;;;;5043391;28;20340;-56
2022/09/01 04:37:29;;;;;;;7.95;2.88;;;16.30;99.90;;;;;;5040668;28;20047;-58
2022/09/01 04:39:56;;;;;;;7.00;2.40;;;16.40;99.90;;;;;;5045487;28;20024;-59
2022/09/01 04:42:23;;;;;;;6.15;2.53;;;16.40;99.90;;;;;;5048452;28;20061;-58
2022/09/01 04:44:52;;;;;;;7.07;2.33;;;16.60;99.90;;;;;;5041398;28;20036;-58
2022/09/01 04:47:18;;;;;;;5.53;2.08;;;16.40;99.90;;;;;;5043050;28;20036;-59
2022/09/01 04:49:46;;;;;;;5.35;2.10;;;16.30;99.90;;;;;;5043378;28;20029;-58
2022/09/01 04:52:12;;;;;;;5.18;2.08;;;16.10;99.90;;;;;;5042034;28;20028;-59
2022/09/01 04:54:38;;;;;;;5.90;2.55;;;16.10;99.90;;;;;;5047215;28;20101;-59
2022/09/01 04:57:05;;;;;;;6.30;1.90;;;16.20;99.90;;;;;;5040410;28;20460;-58
2022/09/01 04:59:32;;;;;;;6.10;2.30;;;16.20;99.90;;;;;;5044322;28;20205;-59
2022/09/01 05:01:59;;;;;;;9.55;2.00;;;16.20;99.90;;;;;;5040944;28;20037;-58
2022/09/01 05:04:29;;;;;;;11.23;2.53;;;16.20;99.90;;;;;;5041411;28;20053;-58
2022/09/01 05:06:59;;;;;;;8.45;1.92;;;16.00;99.90;;;;;;5040993;28;20551;-59
2022/09/01 05:09:28;;;;;;;9.32;2.03;;;16.20;99.90;;;;;;5042516;28;20037;-57
2022/09/01 05:11:55;;;;;;;4.50;2.00;;;16.10;99.90;;;;;;5039211;28;20037;-58
2022/09/01 05:14:22;;;;;;;5.00;1.70;;;16.20;99.90;;;;;;5043445;28;20037;-58
2022/09/01 05:16:49;;;;;;;6.40;2.15;;;16.10;99.90;;;;;;5040257;28;20071;-59
2022/09/01 05:19:16;;;;;;;8.23;2.08;;;16.20;99.90;;;;;;5043552;28;20090;-58
2022/09/01 05:21:46;;;;;;;4.00;2.17;;;16.30;99.90;;;;;;5038184;28;20476;-59
2022/09/01 05:24:15;;;;;;;4.75;1.83;;;16.20;99.90;;;;;;5041307;28;20048;-59
2022/09/01 05:26:42;;;;;;;4.50;1.90;;;16.40;99.90;;;;;;5033318;28;20503;-56
2022/09/01 05:29:16;;;;;;;7.35;1.95;;;16.20;99.90;;;;;;5028952;28;20037;-57
2022/09/01 05:31:44;;;;;;;4.00;1.98;;;16.20;99.90;;;;;;5046094;28;20037;-58
2022/09/01 05:34:11;;;;;;;6.53;2.00;;;16.20;99.90;;;;;;5040617;28;20567;-57
2022/09/01 05:36:40;;;;;;;6.65;1.85;;;16.20;99.90;;;;;;5047295;28;20086;-58
2022/09/01 05:39:06;;;;;;;4.85;1.90;;;16.20;99.90;;;;;;5042017;28;20444;-59
2022/09/01 05:41:34;;;;;;;4.15;1.90;;;16.30;99.90;;;;;;5043246;28;20693;-58
2022/09/01 05:44:01;;;;;;;7.93;2.35;;;16.30;99.90;;;;;;5038820;28;20041;-58
2022/09/01 05:46:28;;;;;;;6.35;2.15;;;16.50;99.90;;;;;;5038052;28;20041;-58
2022/09/01 05:48:56;;;;;;;7.45;2.00;;;16.50;99.90;;;;;;5042802;28;20041;-59
2022/09/01 05:51:25;;;;;;;5.95;2.05;;;16.50;99.90;;;;;;5037267;28;21068;-58
2022/09/01 05:53:57;;;;;;;6.78;1.98;;;16.60;99.90;;;;;;5043026;28;20373;-59
2022/09/01 05:56:25;;;;;;;7.97;2.20;;;16.70;99.90;;;;;;5040455;28;20076;-59
2022/09/01 05:58:52;;;;;;;7.95;2.08;;;16.80;99.90;;;;;;5039054;28;20045;-56
2022/09/01 06:01:25;;;;;;;6.90;2.25;;;16.90;99.90;;;;;;5042924;28;20044;-59
2022/09/01 06:03:53;;;;;;;;;;;16.50;99.90;;;;;;5041031;28;20097;-60
2022/09/01 06:06:21;;;;;;;4.18;1.90;;;16.70;99.90;;;;;;5032952;28;19917;-59
2022/09/01 06:08:51;;;;;;;3.47;1.73;;;16.90;99.90;;;;;;5039236;28;20044;-59
2022/09/01 06:11:18;;;;;;;6.45;2.00;;;16.80;99.90;;;;;;5038236;28;20041;-58
2022/09/01 06:13:46;;;;;;;8.25;1.80;;;16.70;99.90;;;;;;5042318;28;20033;-59
2022/09/01 06:16:15;;;;;;;5.32;1.85;;;16.80;99.90;;;;;;5034702;28;20088;-59
2022/09/01 06:18:42;;;;;;;2.95;1.80;;;16.70;99.90;;;;;;5038401;28;20045;-60
2022/09/01 06:21:13;;;;;;;9.25;1.98;;;16.70;99.90;;;;;;5039046;28;20048;-59
2022/09/01 06:23:44;;;;;;;8.35;2.00;;;16.90;99.90;;;;;;5039788;28;20032;-56
2022/09/01 06:26:27;;;;;;;9.40;1.98;;;17.10;99.90;;;;;;5038265;28;20037;-59
2022/09/01 06:29:00;;;;;;;8.47;1.77;;;17.30;99.90;;;;;;5039231;28;20495;-60
2022/09/01 06:31:32;;;;;;;7.20;3.43;;;17.40;99.90;;;;;;5037759;28;20499;-59
2022/09/01 06:34:00;;;;;;;6.07;2.65;;;17.30;99.90;;;;;;5040478;28;20131;-59
2022/09/01 06:36:26;;;;;;;6.45;1.92;;;17.40;99.90;;;;;;5035391;28;20037;-57
2022/09/01 06:38:52;;;;;;;5.32;1.70;;;17.50;99.90;;;;;;5037294;28;20500;-60
2022/09/01 06:41:20;;;;;;;5.88;1.80;;;17.60;99.90;;;;;;5038198;28;20180;-58
2022/09/01 06:43:48;;;;;;;4.35;1.80;;;17.60;99.90;;;;;;5037007;28;20033;-59
2022/09/01 06:46:16;;;;;;;5.72;1.70;;;17.60;99.90;;;;;;5040892;28;20033;-57
2022/09/01 06:48:45;;;;;;;9.00;2.00;;;17.50;99.90;;;;;;5057369;28;20307;-58
2022/09/01 06:51:16;;;;;;;10.10;1.90;;;17.70;99.90;;;;;;5038836;28;20050;-58
2022/09/01 06:53:43;;;;;;;9.98;2.20;;;17.90;99.90;;;;;;5040097;28;20128;-58
2022/09/01 06:56:12;;;;;;;9.80;1.98;;;18.10;99.90;;;;;;5040789;28;20791;-59
2022/09/01 06:58:40;;;;;;;5.25;1.95;;;17.90;99.90;;;;;;5041679;28;20044;-56
2022/09/01 07:01:14;;;;;;;5.63;2.30;;;17.90;99.90;;;;;;5041229;28;20045;-59
2022/09/01 07:03:42;;;;;;;7.93;2.25;;;18.00;99.90;;;;;;5038755;28;20033;-59
2022/09/01 07:06:09;;;;;;;8.13;2.15;;;17.90;99.90;;;;;;5042540;28;20216;-58
2022/09/01 07:08:38;;;;;;;5.15;2.17;;;18.10;99.90;;;;;;5043472;28;20096;-59
2022/09/01 07:11:06;;;;;;;8.95;2.28;;;18.20;99.90;;;;;;5041536;28;20624;-60
2022/09/01 07:13:34;;;;;;;8.88;2.50;;;18.20;99.90;;;;;;5047058;28;20123;-60
2022/09/01 07:16:05;;;;;;;4.35;1.80;;;18.40;99.90;;;;;;5047135;28;20125;-59
2022/09/01 07:18:32;;;;;;;9.27;2.17;;;18.60;99.90;;;;;;5066973;28;20042;-59
2022/09/01 07:20:59;;;;;;;4.82;1.90;;;18.70;99.90;;;;;;5061136;28;20043;-59
2022/09/01 07:23:26;;;;;;;10.30;2.15;;;18.70;99.90;;;;;;5067305;28;20100;-57
2022/09/01 07:25:54;;;;;;;10.55;2.30;;;18.60;99.90;;;;;;5069677;28;20033;-60
2022/09/01 07:28:22;;;;;;;5.20;2.17;;;18.60;99.90;;;;;;5066277;28;20115;-59
2022/09/01 07:30:49;;;;;;;6.85;2.08;;;18.60;99.90;;;;;;5065464;28;20032;-60
2022/09/01 07:33:19;;;;;;;5.65;2.00;;;18.90;99.90;;;;;;5067682;28;20043;-58
2022/09/01 07:35:45;;;;;;;3.42;1.70;;;18.80;99.90;;;;;;5066169;28;20033;-60
2022/09/01 07:38:12;;;;;;;5.65;1.63;;;19.00;99.90;;;;;;5072349;28;20046;-60
2022/09/01 07:40:39;;;;;;;5.30;2.13;;;19.20;99.90;;;;;;5068610;28;20083;-59
2022/09/01 07:43:08;;;;;;;3.63;1.70;;;19.20;99.90;;;;;;5065749;28;20035;-59
2022/09/01 07:45:36;;;;;;;4.63;1.60;;;19.20;99.90;;;;;;5068167;28;20053;-59
2022/09/01 07:48:05;;;;;;;4.68;1.58;;;19.30;99.90;;;;;;5067642;28;20033;-59
2022/09/01 07:50:32;;;;;;;4.15;1.73;;;19.40;99.90;;;;;;5061947;28;20041;-59
2022/09/01 07:52:59;;;;;;;4.22;1.63;;;19.40;99.90;;;;;;5066030;28;20032;-59
2022/09/01 07:55:26;;;;;;;8.05;1.60;;;19.30;99.90;;;;;;5061908;28;20149;-60
2022/09/01 07:57:52;;;;;;;5.78;1.50;;;19.60;99.90;;;;;;5062467;28;20088;-58
2022/09/01 08:00:20;;;;;;;5.72;1.60;;;19.60;99.90;;;;;;5056702;28;20044;-59
2022/09/01 08:02:47;;;;;;;4.65;1.55;;;19.60;99.90;;;;;;5065831;28;20466;-60
2022/09/01 08:05:16;;;;;;;3.13;1.60;;;19.70;99.90;;;;;;5065461;28;20036;-60
2022/09/01 08:07:46;;;;;;;5.05;2.13;;;19.80;99.90;;;;;;5057995;28;20037;-59
2022/09/01 08:10:11;;;;;;;5.60;1.92;;;19.90;99.90;;;;;;5066490;28;20082;-59
2022/09/01 08:12:37;;;;;;;5.97;1.80;;;20.00;99.90;;;;;;5064984;28;20037;-59
2022/09/01 08:15:04;;;;;;;6.03;1.48;;;20.20;99.90;;;;;;5061024;28;20041;-60
2022/09/01 08:17:30;;;;;;;3.08;1.55;;;20.20;99.90;;;;;;5065658;28;20033;-60
2022/09/01 08:19:56;;;;;;;5.68;1.70;;;20.30;99.90;;;;;;5062042;28;20055;-59
2022/09/01 08:22:23;;;;;;;6.72;1.65;;;20.50;99.90;;;;;;5063031;28;20036;-60
2022/09/01 08:24:52;;;;;;;7.80;1.40;;;20.60;99.90;;;;;;5062374;28;20028;-59
2022/09/01 08:27:18;;;;;;;5.82;1.35;;;20.70;99.90;;;;;;5063997;28;20025;-60
2022/09/01 08:29:44;;;;;;;6.65;1.70;;;20.50;99.90;;;;;;5063594;28;20029;-61
2022/09/01 08:32:10;;;;;;;5.40;1.42;;;20.60;99.90;;;;;;5067142;28;20046;-60
2022/09/01 08:34:36;;;;;;;3.38;1.10;;;20.90;99.90;;;;;;5063978;28;20051;-58
2022/09/01 08:37:03;;;;;;;7.63;1.30;;;20.90;99.90;;;;;;5063708;28;20040;-59
2022/09/01 08:39:29;;;;;;;4.55;1.17;;;20.70;99.90;;;;;;5064332;28;20048;-59
2022/09/01 08:42:05;;;;;;;8.60;1.30;;;20.90;99.90;;;;;;5065967;28;20037;-58
2022/09/01 08:44:45;;;;;;;4.32;1.20;;;21.10;99.90;;;;;;5068935;28;20039;-59
2022/09/01 08:47:15;;;;;;;4.57;1.17;;;21.10;99.90;;;;;;5069546;27;20033;-60
2022/09/01 08:49:44;;;;;;;2.83;1.25;;;21.30;99.90;;;;;;5062512;28;20042;-60
2022/09/01 08:52:33;;;;;;;7.50;1.50;;;21.20;99.90;;;;;;5061592;28;20476;-60
2022/09/01 08:55:07;;;;;;;3.47;1.52;;;21.10;99.90;;;;;;5061782;28;20036;-59
2022/09/01 08:57:42;;;;;;;2.67;1.23;;;21.30;99.90;;;;;;5067621;28;20051;-59
2022/09/01 09:00:12;;;;;;;3.50;1.20;;;21.20;99.90;;;;;;5067449;28;20380;-59
2022/09/01 09:03:15;;;;;;;4.88;1.30;;;21.30;99.90;;;;;;5064758;28;20478;-60
2022/09/01 09:06:15;;;;;;;3.13;1.17;;;21.50;99.90;;;;;;5055614;28;20055;-60
2022/09/01 09:09:04;;;;;;;2.70;1.00;;;21.60;99.90;;;;;;5056331;28;20684;-60
2022/09/01 09:11:39;;;;;;;2.47;1.05;;;21.70;99.90;;;;;;5055958;28;20120;-59
2022/09/01 09:14:40;;;;;;;1.92;1.30;;;21.70;99.90;;;;;;5066772;28;20110;-60
2022/09/01 09:17:08;;;;;;;1.92;1.08;;;21.80;99.90;;;;;;5066565;28;20036;-60
2022/09/01 09:19:41;;;;;;;8.13;1.40;;;21.90;99.90;;;;;;5061951;28;20365;-60
2022/09/01 09:22:10;;;;;;;3.38;1.13;;;21.80;99.90;;;;;;5065567;28;20131;-58
2022/09/01 09:25:00;;;;;;;6.13;1.20;;;21.90;99.90;;;;;;5064221;28;20036;-60
2022/09/01 09:27:32;;;;;;;2.42;1.10;;;22.00;99.90;;;;;;5057683;28;20045;-60
2022/09/01 09:30:01;;;;;;;5.90;1.17;;;22.10;99.90;;;;;;5066634;28;20051;-60
2022/09/01 09:32:59;;;;;;;5.97;1.30;;;22.10;99.90;;;;;;5042485;28;20037;-58
2022/09/01 09:35:31;;;;;;;5.20;1.00;;;21.70;99.90;;;;;;5042026;28;20032;-60
2022/09/01 09:38:17;;;;;;;6.78;1.15;;;21.80;99.90;;;;;;5044693;28;20822;-60
2022/09/01 09:41:01;;;;;;;2.42;0.80;;;22.00;99.90;;;;;;5044084;28;20491;-60
2022/09/01 09:43:30;;;;;;;1.63;0.95;;;22.00;99.90;;;;;;5040342;28;20356;-60
2022/09/01 09:46:33;;;;;;;5.53;1.20;;;22.00;99.90;;;;;;5035912;28;20685;-61
2022/09/01 09:49:29;;;;;;;8.20;2.00;;;22.10;99.90;;;;;;5037206;28;20564;-60
2022/09/01 09:52:07;;;;;;;4.70;1.80;;;22.30;99.90;;;;;;5041184;28;20025;-60
2022/09/01 09:54:34;;;;;;;1.20;0.90;;;22.30;99.90;;;;;;5055251;28;20032;-59
2022/09/01 09:57:16;;;;;;;3.53;1.10;;;22.30;99.90;;;;;;5042620;28;20039;-61
2022/09/01 10:00:06;;;;;;;3.08;1.13;;;22.40;99.90;;;;;;5047439;28;20493;-59
2022/09/01 10:02:37;;;;;;;3.55;0.90;;;22.40;99.90;;;;;;5041810;28;20037;-61
2022/09/01 10:05:28;;;;;;;2.13;0.90;;;22.30;99.90;;;;;;5043693;28;20041;-60
2022/09/01 10:07:55;;;;;;;3.47;1.13;;;22.30;99.90;;;;;;5044664;28;20472;-60
2022/09/01 10:10:43;;;;;;;2.17;1.00;;;22.30;99.90;;;;;;5042380;28;20488;-60
2022/09/01 10:13:18;;;;;;;2.53;1.08;;;22.40;99.90;;;;;;5041262;28;20044;-61
2022/09/01 10:15:49;;;;;;;2.70;1.00;;;22.50;99.90;;;;;;5041376;28;20072;-61
2022/09/01 10:18:28;;;;;;;2.17;0.88;;;22.50;99.90;;;;;;5040029;28;20033;-59
2022/09/01 10:21:01;;;;;;;2.63;0.98;;;22.60;99.90;;;;;;5041412;28;20654;-60
2022/09/01 10:23:33;;;;;;;4.38;0.80;;;22.30;99.90;;;;;;5042283;28;20021;-61
2022/09/01 10:26:09;;;;;;;2.03;1.07;;;22.40;99.90;;;;;;5042553;28;20044;-61
2022/09/01 10:28:59;;;;;;;1.83;0.90;;;22.40;99.90;;;;;;5042306;28;20078;-61
2022/09/01 10:31:25;;;;;;;2.38;0.90;;;22.40;99.90;;;;;;5040343;28;20084;-60
2022/09/01 10:33:51;;;;;;;1.88;0.90;;;22.40;99.90;;;;;;5043877;28;20025;-59
2022/09/01 10:36:18;;;;;;;1.33;0.90;;;22.50;99.90;;;;;;5040122;28;20367;-60
2022/09/01 10:38:44;;;;;;;3.33;1.17;;;22.50;99.90;;;;;;5041838;28;20515;-60
2022/09/01 10:41:29;;;;;;;5.63;1.63;;;22.60;99.90;;;;;;5042110;28;20037;-58
2022/09/01 10:44:09;;;;;;;2.80;1.10;;;22.70;99.90;;;;;;5046863;28;20040;-61
2022/09/01 10:46:40;;;;;;;2.17;1.20;;;22.70;99.90;;;;;;5042314;28;20037;-58
2022/09/01 10:49:29;;;;;;;3.65;1.10;;;22.70;99.90;;;;;;5039012;28;20440;-61
2022/09/01 10:51:56;;;;;;;6.55;1.10;;;22.60;99.90;;;;;;5041623;28;20502;-61
2022/09/01 10:54:40;;;;;;;7.07;1.25;;;22.70;99.90;;;;;;5041472;28;20045;-58
2022/09/01 10:57:31;;;;;;;4.32;1.05;;;22.80;99.90;;;;;;5045348;28;20488;-59
2022/09/01 11:00:22;;;;;;;2.83;0.95;;;22.90;99.90;;;;;;5027784;28;20049;-60
2022/09/01 11:03:30;;;;;;;3.83;0.95;;;22.90;99.90;;;;;;5042457;28;20111;-59
2022/09/01 11:06:31;;;;;;;5.82;1.10;;;22.80;99.90;;;;;;5032158;28;20464;-61
2022/09/01 11:09:07;;;;;;;3.17;1.08;;;22.90;99.90;;;;;;5036908;28;20033;-60
2022/09/01 11:11:38;;;;;;;2.38;0.80;;;22.90;99.90;;;;;;5061842;28;20036;-60
2022/09/01 11:14:17;;;;;;;4.20;1.13;;;23.00;99.90;;;;;;5062579;28;20040;-60
2022/09/01 11:17:03;;;;;;;3.00;1.10;;;23.10;99.90;;;;;;5059494;28;20032;-60
2022/09/01 11:19:36;;;;;;;2.42;1.10;;;23.10;99.90;;;;;;5064019;28;20089;-58
2022/09/01 11:22:33;;;;;;;3.05;1.10;;;23.10;99.90;;;;;;5066504;28;20033;-62
2022/09/01 11:25:10;;;;;;;2.25;1.00;;;23.00;99.90;;;;;;5057265;28;20044;-60
2022/09/01 11:27:47;;;;;;;3.53;1.40;;;23.00;99.90;;;;;;5038670;28;20033;-59
2022/09/01 11:30:35;;;;;;;2.45;1.35;;;23.00;99.90;;;;;;5040740;28;20971;-61
2022/09/01 11:33:30;;;;;;;5.70;2.75;;;23.00;99.90;;;;;;5043868;28;20029;-61
2022/09/01 11:36:05;;;;;;;4.75;1.30;;;23.10;99.90;;;;;;5039065;28;20033;-60
2022/09/01 11:38:47;;;;;;;1.83;1.10;;;23.50;99.90;;;;;;5046316;28;20044;-60
2022/09/01 11:41:25;;;;;;;1.83;0.95;;;23.20;99.90;;;;;;5041378;28;20127;-60
2022/09/01 11:43:57;;;;;;;6.72;1.27;;;23.30;99.90;;;;;;5037276;28;20033;-61
2022/09/01 11:46:29;;;;;;;4.82;1.10;;;23.00;99.90;;;;;;5038531;28;20037;-60
2022/09/01 11:48:56;;;;;;;3.70;1.25;;;23.00;99.90;;;;;;5042167;28;20185;-60
2022/09/01 11:51:22;;;;;;;3.20;0.98;;;23.10;99.90;;;;;;5040584;28;20045;-59
2022/09/01 11:53:49;;;;;;;2.83;1.10;;;23.20;99.90;;;;;;5043241;28;20456;-60
2022/09/01 11:56:25;;;;;;;3.30;1.30;;;23.20;99.90;;;;;;5041564;28;20556;-60
2022/09/01 11:58:51;;;;;;;4.05;1.10;;;23.30;99.90;;;;;;5046371;28;20068;-59
2022/09/01 12:01:21;;;;;;;4.18;1.10;;;23.30;99.90;;;;;;5040243;28;20068;-61
2022/09/01 12:03:50;;;;;;;3.00;1.30;;;23.40;99.90;;;;;;5047157;28;20036;-59
2022/09/01 12:06:22;;;;;;;5.50;1.63;;;23.30;99.90;;;;;;5046258;28;20056;-60
2022/09/01 12:08:57;;;;;;;2.70;1.05;;;23.30;99.90;;;;;;5045496;28;20173;-60
2022/09/01 12:11:34;;;;;;;3.70;1.45;;;23.30;99.90;;;;;;5041375;28;20060;-61
2022/09/01 12:14:09;;;;;;;3.03;1.20;;;23.40;99.90;;;;;;5046230;28;20041;-60
2022/09/01 12:16:38;;;;;;;6.22;1.38;;;23.40;99.90;;;;;;5040479;28;20041;-61
2022/09/01 12:19:05;;;;;;;1.90;1.10;;;23.50;99.90;;;;;;5040034;28;20372;-60
2022/09/01 12:21:35;;;;;;;4.57;1.30;;;23.60;99.90;;;;;;5045337;28;20163;-59
2022/09/01 12:24:16;;;;;;;5.93;1.30;;;23.50;99.90;;;;;;5039918;28;20040;-60
2022/09/01 12:26:43;;;;;;;3.75;1.20;;;23.90;99.90;;;;;;5040747;28;20765;-61
2022/09/01 12:29:12;;;;;;;4.03;1.55;;;23.80;99.90;;;;;;5045331;28;20045;-61
2022/09/01 12:31:40;;;;;;;2.78;1.42;;;23.80;99.90;;;;;;5043111;28;20037;-61
2022/09/01 12:34:23;;;;;;;1.77;1.00;;;23.70;99.90;;;;;;5044250;28;20115;-60
2022/09/01 12:37:10;;;;;;;2.95;1.40;;;23.70;99.90;;;;;;5043957;28;20041;-61
2022/09/01 12:39:41;;;;;;;6.20;2.20;;;23.90;99.90;;;;;;5041449;28;20368;-60
2022/09/01 12:42:26;;;;;;;5.30;2.25;;;23.90;99.90;;;;;;5039908;28;20044;-58
2022/09/01 12:44:56;;;;;;;4.20;1.92;;;23.80;99.90;;;;;;5045398;28;20029;-61
2022/09/01 12:47:46;;;;;;;2.95;1.42;;;23.90;99.90;;;;;;5044301;28;20455;-60
2022/09/01 12:50:14;;;;;;;3.90;1.20;;;23.80;99.90;;;;;;5038325;28;20049;-60
2022/09/01 12:52:54;;;;;;;6.25;1.38;;;23.90;99.90;;;;;;5057753;28;20037;-60
2022/09/01 12:55:21;;;;;;;5.15;1.58;;;24.00;99.90;;;;;;5039415;28;20581;-60
2022/09/01 12:58:19;;;;;;;3.97;1.30;;;24.00;99.90;;;;;;5042045;28;20021;-60
2022/09/01 13:01:01;;;;;;;3.33;1.27;;;23.90;99.90;;;;;;5042123;28;20392;-60
2022/09/01 13:03:28;;;;;;;6.85;1.70;;;23.90;99.90;;;;;;5040853;28;20400;-60
2022/09/01 13:05:58;;;;;;;3.78;1.40;;;24.00;99.90;;;;;;5045225;28;20037;-60
2022/09/01 13:08:31;;;;;;;3.25;1.38;;;24.00;99.90;;;;;;5041621;28;20502;-60
2022/09/01 13:11:06;;;;;;;3.00;1.30;;;24.10;99.90;;;;;;5044582;28;20032;-61
2022/09/01 13:13:34;;;;;;;3.85;1.20;;;24.20;99.90;;;;;;5057582;28;20103;-59
2022/09/01 13:16:11;;;;;;;4.60;1.30;;;24.30;99.90;;;;;;5041794;28;20758;-61